sensor_id;sensor_type;location;lat;lon;timestamp;temperature;humidity
16301;DHT22;8258;51.020;4.248;2023-06-22T00:01:22;18.50;99.90
16301;DHT22;8258;51.020;4.248;2023-06-22T00:03:49;18.60;99.90
16301;DHT22;8258;51.020;4.248;2023-06-22T00:06:16;18.60;99.90
16301;DHT22;8258;51.020;4.248;2023-06-22T00:08:43;18.60;99.90
16301;DHT22;8258;51.020;4.248;2023-06-22T00:11:12;18.70;99.90
16301;DHT22;8258;51.020;4.248;2023-06-22T00:13:39;18.60;99.90
16301;DHT22;8258;51.020;4.248;2023-06-22T00:16:06;18.50;99.90
16301;DHT22;8258;51.020;4.248;2023-06-22T00:18:33;18.60;99.90
16301;DHT22;8258;51.020;4.248;2023-06-22T00:21:00;18.50;99.90
16301;DHT22;8258;51.020;4.248;2023-06-22T00:23:27;18.50;99.90
16301;DHT22;8258;51.020;4.248;2023-06-22T00:25:54;18.40;99.90
16301;DHT22;8258;51.020;4.248;2023-06-22T00:28:22;18.40;99.90
16301;DHT22;8258;51.020;4.248;2023-06-22T00:30:49;18.40;99.90
16301;DHT22;8258;51.020;4.248;2023-06-22T00:33:16;18.40;99.90
16301;DHT22;8258;51.020;4.248;2023-06-22T00:35:43;18.40;99.90
16301;DHT22;8258;51.020;4.248;2023-06-22T00:38:10;18.30;99.90
16301;DHT22;8258;51.020;4.248;2023-06-22T00:40:37;18.20;99.90
16301;DHT22;8258;51.020;4.248;2023-06-22T00:43:05;18.00;99.90
16301;DHT22;8258;51.020;4.248;2023-06-22T00:45:34;17.90;99.90
16301;DHT22;8258;51.020;4.248;2023-06-22T00:48:01;17.80;99.90
16301;DHT22;8258;51.020;4.248;2023-06-22T00:50:30;17.80;99.90
16301;DHT22;8258;51.020;4.248;2023-06-22T00:53:03;17.90;99.90
16301;DHT22;8258;51.020;4.248;2023-06-22T00:55:35;18.00;99.90
16301;DHT22;8258;51.020;4.248;2023-06-22T00:58:04;18.00;99.90
16301;DHT22;8258;51.020;4.248;2023-06-22T01:00:35;17.90;99.90
16301;DHT22;8258;51.020;4.248;2023-06-22T01:03:01;17.90;99.90
16301;DHT22;8258;51.020;4.248;2023-06-22T01:05:29;17.80;99.90
16301;DHT22;8258;51.020;4.248;2023-06-22T01:08:04;17.80;99.90
16301;DHT22;8258;51.020;4.248;2023-06-22T01:10:39;17.80;99.90
16301;DHT22;8258;51.020;4.248;2023-06-22T01:13:16;17.90;99.90
16301;DHT22;8258;51.020;4.248;2023-06-22T01:15:50;18.00;99.90
16301;DHT22;8258;51.020;4.248;2023-06-22T01:18:22;17.90;99.90
16301;DHT22;8258;51.020;4.248;2023-06-22T01:20:52;18.00;99.90
16301;DHT22;8258;51.020;4.248;2023-06-22T01:23:26;18.10;99.90
16301;DHT22;8258;51.020;4.248;2023-06-22T01:26:02;18.00;99.90
16301;DHT22;8258;51.020;4.248;2023-06-22T01:28:45;18.10;99.90
16301;DHT22;8258;51.020;4.248;2023-06-22T01:31:14;18.00;99.90
16301;DHT22;8258;51.020;4.248;2023-06-22T01:33:45;18.10;99.90
16301;DHT22;8258;51.020;4.248;2023-06-22T01:36:13;18.20;99.90
16301;DHT22;8258;51.020;4.248;2023-06-22T01:38:42;18.20;99.90
16301;DHT22;8258;51.020;4.248;2023-06-22T01:41:10;18.20;99.90
16301;DHT22;8258;51.020;4.248;2023-06-22T01:43:37;18.30;99.90
16301;DHT22;8258;51.020;4.248;2023-06-22T01:46:06;18.20;99.90
16301;DHT22;8258;51.020;4.248;2023-06-22T01:48:33;18.10;99.90
16301;DHT22;8258;51.020;4.248;2023-06-22T01:51:00;17.80;99.90
16301;DHT22;8258;51.020;4.248;2023-06-22T01:53:27;17.70;99.90
16301;DHT22;8258;51.020;4.248;2023-06-22T01:55:54;17.70;99.90
16301;DHT22;8258;51.020;4.248;2023-06-22T01:58:23;17.70;99.90
16301;DHT22;8258;51.020;4.248;2023-06-22T02:00:55;17.70;99.90
16301;DHT22;8258;51.020;4.248;2023-06-22T02:03:29;17.60;99.90
16301;DHT22;8258;51.020;4.248;2023-06-22T02:06:02;17.40;99.90
16301;DHT22;8258;51.020;4.248;2023-06-22T02:08:35;17.40;99.90
16301;DHT22;8258;51.020;4.248;2023-06-22T02:11:04;17.40;99.90
16301;DHT22;8258;51.020;4.248;2023-06-22T02:13:33;17.40;99.90
16301;DHT22;8258;51.020;4.248;2023-06-22T02:16:01;17.40;99.90
16301;DHT22;8258;51.020;4.248;2023-06-22T02:18:29;17.50;99.90
16301;DHT22;8258;51.020;4.248;2023-06-22T02:20:56;17.50;99.90
16301;DHT22;8258;51.020;4.248;2023-06-22T02:23:23;17.50;99.90
16301;DHT22;8258;51.020;4.248;2023-06-22T02:25:50;17.30;99.90
16301;DHT22;8258;51.020;4.248;2023-06-22T02:28:17;17.30;99.90
16301;DHT22;8258;51.020;4.248;2023-06-22T02:30:44;17.40;99.90
16301;DHT22;8258;51.020;4.248;2023-06-22T02:33:10;17.40;99.90
16301;DHT22;8258;51.020;4.248;2023-06-22T02:35:39;17.30;99.90
16301;DHT22;8258;51.020;4.248;2023-06-22T02:38:11;17.30;99.90
16301;DHT22;8258;51.020;4.248;2023-06-22T02:40:38;17.40;99.90
16301;DHT22;8258;51.020;4.248;2023-06-22T02:43:04;17.40;99.90
16301;DHT22;8258;51.020;4.248;2023-06-22T02:45:31;17.30;99.90
16301;DHT22;8258;51.020;4.248;2023-06-22T02:47:58;17.20;99.90
16301;DHT22;8258;51.020;4.248;2023-06-22T02:50:25;17.20;99.90
16301;DHT22;8258;51.020;4.248;2023-06-22T02:52:53;17.20;99.90
16301;DHT22;8258;51.020;4.248;2023-06-22T02:55:20;17.20;99.90
16301;DHT22;8258;51.020;4.248;2023-06-22T02:57:47;17.20;99.90
16301;DHT22;8258;51.020;4.248;2023-06-22T03:00:18;17.10;99.90
16301;DHT22;8258;51.020;4.248;2023-06-22T03:02:48;17.10;99.90
16301;DHT22;8258;51.020;4.248;2023-06-22T03:05:15;17.10;99.90
16301;DHT22;8258;51.020;4.248;2023-06-22T03:07:43;17.00;99.90
16301;DHT22;8258;51.020;4.248;2023-06-22T03:10:13;17.00;99.90
16301;DHT22;8258;51.020;4.248;2023-06-22T03:12:41;17.10;99.90
16301;DHT22;8258;51.020;4.248;2023-06-22T03:15:10;17.20;99.90
16301;DHT22;8258;51.020;4.248;2023-06-22T03:17:38;17.30;99.90
16301;DHT22;8258;51.020;4.248;2023-06-22T03:20:06;17.30;99.90
16301;DHT22;8258;51.020;4.248;2023-06-22T03:22:34;17.30;99.90
16301;DHT22;8258;51.020;4.248;2023-06-22T03:25:02;17.30;99.90
16301;DHT22;8258;51.020;4.248;2023-06-22T03:27:31;17.40;99.90
16301;DHT22;8258;51.020;4.248;2023-06-22T03:29:58;17.40;99.90
16301;DHT22;8258;51.020;4.248;2023-06-22T03:32:25;17.40;99.90
16301;DHT22;8258;51.020;4.248;2023-06-22T03:34:53;17.30;99.90
16301;DHT22;8258;51.020;4.248;2023-06-22T03:37:24;17.20;99.90
16301;DHT22;8258;51.020;4.248;2023-06-22T03:39:51;17.10;99.90
16301;DHT22;8258;51.020;4.248;2023-06-22T03:42:18;17.10;99.90
16301;DHT22;8258;51.020;4.248;2023-06-22T03:44:46;17.00;99.90
16301;DHT22;8258;51.020;4.248;2023-06-22T03:47:13;17.00;99.90
16301;DHT22;8258;51.020;4.248;2023-06-22T03:49:40;17.10;99.90
16301;DHT22;8258;51.020;4.248;2023-06-22T03:52:07;17.10;99.90
16301;DHT22;8258;51.020;4.248;2023-06-22T03:54:35;17.10;99.90
16301;DHT22;8258;51.020;4.248;2023-06-22T03:57:02;17.10;99.90
16301;DHT22;8258;51.020;4.248;2023-06-22T03:59:28;17.10;99.90
16301;DHT22;8258;51.020;4.248;2023-06-22T04:01:57;17.00;99.90
16301;DHT22;8258;51.020;4.248;2023-06-22T04:04:24;17.10;99.90
16301;DHT22;8258;51.020;4.248;2023-06-22T04:06:51;17.20;99.90
16301;DHT22;8258;51.020;4.248;2023-06-22T04:09:17;17.10;99.90
16301;DHT22;8258;51.020;4.248;2023-06-22T04:11:44;17.20;99.90
16301;DHT22;8258;51.020;4.248;2023-06-22T04:14:11;17.20;99.90
16301;DHT22;8258;51.020;4.248;2023-06-22T04:16:38;17.20;99.90
16301;DHT22;8258;51.020;4.248;2023-06-22T04:19:06;17.20;99.90
16301;DHT22;8258;51.020;4.248;2023-06-22T04:21:38;17.10;99.90
16301;DHT22;8258;51.020;4.248;2023-06-22T04:24:06;17.20;99.90
16301;DHT22;8258;51.020;4.248;2023-06-22T04:26:33;17.20;99.90
16301;DHT22;8258;51.020;4.248;2023-06-22T04:29:02;17.20;99.90
16301;DHT22;8258;51.020;4.248;2023-06-22T04:31:31;17.30;99.90
16301;DHT22;8258;51.020;4.248;2023-06-22T04:34:02;17.30;99.90
16301;DHT22;8258;51.020;4.248;2023-06-22T04:36:34;17.50;99.90
16301;DHT22;8258;51.020;4.248;2023-06-22T04:39:04;17.60;99.90
16301;DHT22;8258;51.020;4.248;2023-06-22T04:41:31;17.70;99.90
16301;DHT22;8258;51.020;4.248;2023-06-22T04:44:08;17.70;99.90
16301;DHT22;8258;51.020;4.248;2023-06-22T04:46:35;17.80;99.90
16301;DHT22;8258;51.020;4.248;2023-06-22T04:49:07;18.00;99.90
16301;DHT22;8258;51.020;4.248;2023-06-22T04:51:39;18.10;99.90
16301;DHT22;8258;51.020;4.248;2023-06-22T04:54:09;18.20;99.90
16301;DHT22;8258;51.020;4.248;2023-06-22T04:56:36;18.30;99.90
16301;DHT22;8258;51.020;4.248;2023-06-22T04:59:03;18.40;99.90
16301;DHT22;8258;51.020;4.248;2023-06-22T05:01:30;18.50;99.90
16301;DHT22;8258;51.020;4.248;2023-06-22T05:03:57;18.50;99.90
16301;DHT22;8258;51.020;4.248;2023-06-22T05:06:27;18.60;99.90
16301;DHT22;8258;51.020;4.248;2023-06-22T05:08:56;18.70;99.90
16301;DHT22;8258;51.020;4.248;2023-06-22T05:11:24;18.60;99.90
16301;DHT22;8258;51.020;4.248;2023-06-22T05:13:51;18.70;99.90
16301;DHT22;8258;51.020;4.248;2023-06-22T05:16:19;18.80;99.90
16301;DHT22;8258;51.020;4.248;2023-06-22T05:18:50;19.10;99.90
16301;DHT22;8258;51.020;4.248;2023-06-22T05:21:17;19.20;99.90
16301;DHT22;8258;51.020;4.248;2023-06-22T05:23:44;19.40;99.90
16301;DHT22;8258;51.020;4.248;2023-06-22T05:26:13;19.50;99.90
16301;DHT22;8258;51.020;4.248;2023-06-22T05:28:40;19.50;99.90
16301;DHT22;8258;51.020;4.248;2023-06-22T05:31:07;19.60;99.90
16301;DHT22;8258;51.020;4.248;2023-06-22T05:33:33;19.80;99.90
16301;DHT22;8258;51.020;4.248;2023-06-22T05:36:00;19.80;99.90
16301;DHT22;8258;51.020;4.248;2023-06-22T05:38:27;19.90;99.90
16301;DHT22;8258;51.020;4.248;2023-06-22T05:40:54;19.90;99.90
16301;DHT22;8258;51.020;4.248;2023-06-22T05:43:23;19.90;99.90
16301;DHT22;8258;51.020;4.248;2023-06-22T05:45:50;19.80;99.90
16301;DHT22;8258;51.020;4.248;2023-06-22T05:48:17;19.80;99.90
16301;DHT22;8258;51.020;4.248;2023-06-22T05:50:44;20.00;99.90
16301;DHT22;8258;51.020;4.248;2023-06-22T05:53:11;20.00;99.90
16301;DHT22;8258;51.020;4.248;2023-06-22T05:55:38;20.10;99.90
16301;DHT22;8258;51.020;4.248;2023-06-22T05:58:06;20.20;99.90
16301;DHT22;8258;51.020;4.248;2023-06-22T06:00:34;20.10;99.90
16301;DHT22;8258;51.020;4.248;2023-06-22T06:03:02;20.20;99.90
16301;DHT22;8258;51.020;4.248;2023-06-22T06:05:29;20.10;99.90
16301;DHT22;8258;51.020;4.248;2023-06-22T06:07:56;20.00;99.90
16301;DHT22;8258;51.020;4.248;2023-06-22T06:10:23;20.00;99.90
16301;DHT22;8258;51.020;4.248;2023-06-22T06:12:50;20.00;99.90
16301;DHT22;8258;51.020;4.248;2023-06-22T06:15:17;20.00;99.90
16301;DHT22;8258;51.020;4.248;2023-06-22T06:17:50;20.10;99.90
16301;DHT22;8258;51.020;4.248;2023-06-22T06:20:18;20.10;99.90
16301;DHT22;8258;51.020;4.248;2023-06-22T06:22:45;20.10;99.90
16301;DHT22;8258;51.020;4.248;2023-06-22T06:25:13;20.20;99.90
16301;DHT22;8258;51.020;4.248;2023-06-22T06:27:42;20.10;99.90
16301;DHT22;8258;51.020;4.248;2023-06-22T06:30:10;20.10;99.90
16301;DHT22;8258;51.020;4.248;2023-06-22T06:32:37;20.10;99.90
16301;DHT22;8258;51.020;4.248;2023-06-22T06:35:08;20.20;99.90
16301;DHT22;8258;51.020;4.248;2023-06-22T06:37:37;20.20;99.90
16301;DHT22;8258;51.020;4.248;2023-06-22T06:40:05;20.20;99.90
16301;DHT22;8258;51.020;4.248;2023-06-22T06:42:33;20.40;99.90
16301;DHT22;8258;51.020;4.248;2023-06-22T06:45:00;20.40;99.90
16301;DHT22;8258;51.020;4.248;2023-06-22T06:47:27;20.60;99.90
16301;DHT22;8258;51.020;4.248;2023-06-22T06:49:54;20.70;99.90
16301;DHT22;8258;51.020;4.248;2023-06-22T06:52:22;20.80;99.90
16301;DHT22;8258;51.020;4.248;2023-06-22T06:54:49;20.90;99.90
16301;DHT22;8258;51.020;4.248;2023-06-22T06:57:17;21.00;99.90
16301;DHT22;8258;51.020;4.248;2023-06-22T06:59:45;21.00;99.90
16301;DHT22;8258;51.020;4.248;2023-06-22T07:02:12;21.00;99.90
16301;DHT22;8258;51.020;4.248;2023-06-22T07:04:40;21.00;99.90
16301;DHT22;8258;51.020;4.248;2023-06-22T07:07:07;21.10;99.90
16301;DHT22;8258;51.020;4.248;2023-06-22T07:09:35;21.10;99.90
16301;DHT22;8258;51.020;4.248;2023-06-22T07:12:03;21.10;99.90
16301;DHT22;8258;51.020;4.248;2023-06-22T07:14:29;21.20;99.90
16301;DHT22;8258;51.020;4.248;2023-06-22T07:16:57;21.30;99.90
16301;DHT22;8258;51.020;4.248;2023-06-22T07:19:27;21.40;99.90
16301;DHT22;8258;51.020;4.248;2023-06-22T07:21:54;21.60;99.90
16301;DHT22;8258;51.020;4.248;2023-06-22T07:24:21;21.60;99.90
16301;DHT22;8258;51.020;4.248;2023-06-22T07:26:50;21.90;99.90
16301;DHT22;8258;51.020;4.248;2023-06-22T07:29:18;22.10;99.90
16301;DHT22;8258;51.020;4.248;2023-06-22T07:31:46;22.40;99.90
16301;DHT22;8258;51.020;4.248;2023-06-22T07:34:13;22.70;99.90
16301;DHT22;8258;51.020;4.248;2023-06-22T07:36:40;22.90;99.90
16301;DHT22;8258;51.020;4.248;2023-06-22T07:39:07;23.00;99.90
16301;DHT22;8258;51.020;4.248;2023-06-22T07:41:33;23.10;99.90
16301;DHT22;8258;51.020;4.248;2023-06-22T07:44:02;23.20;99.90
16301;DHT22;8258;51.020;4.248;2023-06-22T07:46:29;23.20;99.90
16301;DHT22;8258;51.020;4.248;2023-06-22T07:48:56;23.20;99.90
16301;DHT22;8258;51.020;4.248;2023-06-22T07:51:25;23.20;99.90
16301;DHT22;8258;51.020;4.248;2023-06-22T07:53:52;23.00;99.90
16301;DHT22;8258;51.020;4.248;2023-06-22T07:56:19;23.10;99.90
16301;DHT22;8258;51.020;4.248;2023-06-22T07:58:46;23.20;99.90
16301;DHT22;8258;51.020;4.248;2023-06-22T08:01:15;23.00;99.90
16301;DHT22;8258;51.020;4.248;2023-06-22T08:03:42;23.10;99.90
16301;DHT22;8258;51.020;4.248;2023-06-22T08:06:09;23.00;99.90
16301;DHT22;8258;51.020;4.248;2023-06-22T08:08:36;22.90;99.90
16301;DHT22;8258;51.020;4.248;2023-06-22T08:11:03;23.00;99.90
16301;DHT22;8258;51.020;4.248;2023-06-22T08:13:30;23.10;99.90
16301;DHT22;8258;51.020;4.248;2023-06-22T08:15:57;23.10;99.90
16301;DHT22;8258;51.020;4.248;2023-06-22T08:18:26;23.00;99.90
16301;DHT22;8258;51.020;4.248;2023-06-22T08:20:53;22.90;99.90
16301;DHT22;8258;51.020;4.248;2023-06-22T08:23:20;23.00;99.90
16301;DHT22;8258;51.020;4.248;2023-06-22T08:25:47;23.10;99.90
16301;DHT22;8258;51.020;4.248;2023-06-22T08:28:15;23.20;99.90
16301;DHT22;8258;51.020;4.248;2023-06-22T08:30:42;23.10;99.90
16301;DHT22;8258;51.020;4.248;2023-06-22T08:33:09;23.00;99.90
16301;DHT22;8258;51.020;4.248;2023-06-22T08:35:38;23.00;99.90
16301;DHT22;8258;51.020;4.248;2023-06-22T08:38:05;22.80;99.90
16301;DHT22;8258;51.020;4.248;2023-06-22T08:40:32;22.90;99.90
16301;DHT22;8258;51.020;4.248;2023-06-22T08:42:59;22.90;99.90
16301;DHT22;8258;51.020;4.248;2023-06-22T08:45:26;22.90;99.90
16301;DHT22;8258;51.020;4.248;2023-06-22T08:47:52;22.70;99.90
16301;DHT22;8258;51.020;4.248;2023-06-22T08:50:19;22.80;99.90
16301;DHT22;8258;51.020;4.248;2023-06-22T08:52:48;22.70;99.90
16301;DHT22;8258;51.020;4.248;2023-06-22T08:55:15;22.70;99.90
16301;DHT22;8258;51.020;4.248;2023-06-22T08:57:42;22.70;99.90
16301;DHT22;8258;51.020;4.248;2023-06-22T09:00:10;22.80;99.90
16301;DHT22;8258;51.020;4.248;2023-06-22T09:02:42;22.70;99.90
16301;DHT22;8258;51.020;4.248;2023-06-22T09:05:09;22.60;99.90
16301;DHT22;8258;51.020;4.248;2023-06-22T09:07:37;22.60;99.90
16301;DHT22;8258;51.020;4.248;2023-06-22T09:10:06;22.50;99.90
16301;DHT22;8258;51.020;4.248;2023-06-22T09:12:33;22.50;99.90
16301;DHT22;8258;51.020;4.248;2023-06-22T09:15:03;22.40;99.90
16301;DHT22;8258;51.020;4.248;2023-06-22T09:17:30;22.30;99.90
16301;DHT22;8258;51.020;4.248;2023-06-22T09:19:57;22.30;99.90
16301;DHT22;8258;51.020;4.248;2023-06-22T09:22:24;22.30;99.90
16301;DHT22;8258;51.020;4.248;2023-06-22T09:24:54;22.30;99.90
16301;DHT22;8258;51.020;4.248;2023-06-22T09:27:23;22.30;99.90
16301;DHT22;8258;51.020;4.248;2023-06-22T09:29:50;22.30;99.90
16301;DHT22;8258;51.020;4.248;2023-06-22T09:32:17;22.30;99.90
16301;DHT22;8258;51.020;4.248;2023-06-22T09:34:44;22.40;99.90
16301;DHT22;8258;51.020;4.248;2023-06-22T09:37:11;22.30;99.90
16301;DHT22;8258;51.020;4.248;2023-06-22T09:39:38;22.40;99.90
16301;DHT22;8258;51.020;4.248;2023-06-22T09:42:05;22.50;99.90
16301;DHT22;8258;51.020;4.248;2023-06-22T09:44:34;22.30;99.90
16301;DHT22;8258;51.020;4.248;2023-06-22T09:47:01;22.40;99.90
16301;DHT22;8258;51.020;4.248;2023-06-22T09:49:27;22.20;99.90
16301;DHT22;8258;51.020;4.248;2023-06-22T09:51:54;22.20;99.90
16301;DHT22;8258;51.020;4.248;2023-06-22T09:54:22;22.20;99.90
16301;DHT22;8258;51.020;4.248;2023-06-22T09:56:49;22.20;99.90
16301;DHT22;8258;51.020;4.248;2023-06-22T09:59:16;22.20;99.90
16301;DHT22;8258;51.020;4.248;2023-06-22T10:01:44;22.30;99.90
16301;DHT22;8258;51.020;4.248;2023-06-22T10:04:11;22.30;99.90
16301;DHT22;8258;51.020;4.248;2023-06-22T10:06:38;22.10;99.90
16301;DHT22;8258;51.020;4.248;2023-06-22T10:09:06;21.90;99.90
16301;DHT22;8258;51.020;4.248;2023-06-22T10:11:34;21.80;99.90
16301;DHT22;8258;51.020;4.248;2023-06-22T10:14:01;21.70;99.90
16301;DHT22;8258;51.020;4.248;2023-06-22T10:16:31;21.60;99.90
16301;DHT22;8258;51.020;4.248;2023-06-22T10:19:00;21.50;99.90
16301;DHT22;8258;51.020;4.248;2023-06-22T10:21:26;21.40;99.90
16301;DHT22;8258;51.020;4.248;2023-06-22T10:23:54;21.30;99.90
16301;DHT22;8258;51.020;4.248;2023-06-22T10:26:21;21.10;99.90
16301;DHT22;8258;51.020;4.248;2023-06-22T10:28:48;21.10;99.90
16301;DHT22;8258;51.020;4.248;2023-06-22T10:31:15;21.00;99.90
16301;DHT22;8258;51.020;4.248;2023-06-22T10:33:42;20.90;99.90
16301;DHT22;8258;51.020;4.248;2023-06-22T10:36:11;20.80;99.90
16301;DHT22;8258;51.020;4.248;2023-06-22T10:38:38;20.60;99.90
16301;DHT22;8258;51.020;4.248;2023-06-22T10:41:05;20.50;99.90
16301;DHT22;8258;51.020;4.248;2023-06-22T10:43:32;20.40;99.90
16301;DHT22;8258;51.020;4.248;2023-06-22T10:45:59;20.10;99.90
16301;DHT22;8258;51.020;4.248;2023-06-22T10:48:26;20.10;99.90
16301;DHT22;8258;51.020;4.248;2023-06-22T10:50:53;20.00;99.90
16301;DHT22;8258;51.020;4.248;2023-06-22T10:53:21;19.90;99.90
16301;DHT22;8258;51.020;4.248;2023-06-22T10:55:48;20.00;99.90
16301;DHT22;8258;51.020;4.248;2023-06-22T10:58:17;19.90;99.90
16301;DHT22;8258;51.020;4.248;2023-06-22T11:00:44;19.90;99.90
16301;DHT22;8258;51.020;4.248;2023-06-22T11:03:11;19.90;99.90
16301;DHT22;8258;51.020;4.248;2023-06-22T11:05:39;19.80;99.90
16301;DHT22;8258;51.020;4.248;2023-06-22T11:08:07;19.80;99.90
16301;DHT22;8258;51.020;4.248;2023-06-22T11:10:35;19.80;99.90
16301;DHT22;8258;51.020;4.248;2023-06-22T11:13:02;19.70;99.90
16301;DHT22;8258;51.020;4.248;2023-06-22T11:15:29;19.80;99.90
16301;DHT22;8258;51.020;4.248;2023-06-22T11:17:56;19.90;99.90
16301;DHT22;8258;51.020;4.248;2023-06-22T11:20:23;19.90;99.90
16301;DHT22;8258;51.020;4.248;2023-06-22T11:22:50;19.90;99.90
16301;DHT22;8258;51.020;4.248;2023-06-22T11:25:17;19.90;99.90
16301;DHT22;8258;51.020;4.248;2023-06-22T11:27:45;19.90;99.90
16301;DHT22;8258;51.020;4.248;2023-06-22T11:30:12;20.00;99.90
16301;DHT22;8258;51.020;4.248;2023-06-22T11:32:39;20.10;99.90
16301;DHT22;8258;51.020;4.248;2023-06-22T11:35:07;20.10;99.90
16301;DHT22;8258;51.020;4.248;2023-06-22T11:37:34;20.20;99.90
16301;DHT22;8258;51.020;4.248;2023-06-22T11:40:01;20.20;99.90
16301;DHT22;8258;51.020;4.248;2023-06-22T11:42:30;20.20;99.90
16301;DHT22;8258;51.020;4.248;2023-06-22T11:44:59;20.30;99.90
16301;DHT22;8258;51.020;4.248;2023-06-22T11:47:26;20.20;99.90
16301;DHT22;8258;51.020;4.248;2023-06-22T11:49:53;20.10;99.90
16301;DHT22;8258;51.020;4.248;2023-06-22T11:52:22;20.00;99.90
16301;DHT22;8258;51.020;4.248;2023-06-22T11:54:49;19.90;99.90
16301;DHT22;8258;51.020;4.248;2023-06-22T11:57:16;19.90;99.90
16301;DHT22;8258;51.020;4.248;2023-06-22T11:59:43;20.00;99.90
16301;DHT22;8258;51.020;4.248;2023-06-22T12:02:11;20.10;99.90
16301;DHT22;8258;51.020;4.248;2023-06-22T12:04:38;20.10;99.90
16301;DHT22;8258;51.020;4.248;2023-06-22T12:07:05;20.10;99.90
16301;DHT22;8258;51.020;4.248;2023-06-22T12:09:32;20.00;99.90
16301;DHT22;8258;51.020;4.248;2023-06-22T12:11:59;20.00;99.90
16301;DHT22;8258;51.020;4.248;2023-06-22T12:14:26;20.00;99.90
16301;DHT22;8258;51.020;4.248;2023-06-22T12:16:53;20.10;99.90
16301;DHT22;8258;51.020;4.248;2023-06-22T12:19:21;20.20;99.90
16301;DHT22;8258;51.020;4.248;2023-06-22T12:21:48;20.40;99.90
16301;DHT22;8258;51.020;4.248;2023-06-22T12:24:15;20.50;99.90
16301;DHT22;8258;51.020;4.248;2023-06-22T12:26:42;20.50;99.90
16301;DHT22;8258;51.020;4.248;2023-06-22T12:29:09;20.60;99.90
16301;DHT22;8258;51.020;4.248;2023-06-22T12:31:36;20.60;99.90
16301;DHT22;8258;51.020;4.248;2023-06-22T12:34:04;20.50;99.90
16301;DHT22;8258;51.020;4.248;2023-06-22T12:36:32;20.40;99.90
16301;DHT22;8258;51.020;4.248;2023-06-22T12:38:59;20.40;99.90
16301;DHT22;8258;51.020;4.248;2023-06-22T12:41:26;20.30;99.90
16301;DHT22;8258;51.020;4.248;2023-06-22T12:43:53;20.40;99.90
16301;DHT22;8258;51.020;4.248;2023-06-22T12:46:20;20.20;99.90
16301;DHT22;8258;51.020;4.248;2023-06-22T12:48:47;20.20;99.90
16301;DHT22;8258;51.020;4.248;2023-06-22T12:51:20;20.20;99.90
16301;DHT22;8258;51.020;4.248;2023-06-22T12:53:49;20.10;99.90
16301;DHT22;8258;51.020;4.248;2023-06-22T12:56:16;20.00;99.90
16301;DHT22;8258;51.020;4.248;2023-06-22T12:58:43;19.90;99.90
16301;DHT22;8258;51.020;4.248;2023-06-22T13:01:10;19.80;99.90
16301;DHT22;8258;51.020;4.248;2023-06-22T13:03:37;19.60;99.90
16301;DHT22;8258;51.020;4.248;2023-06-22T13:06:04;19.60;99.90
16301;DHT22;8258;51.020;4.248;2023-06-22T13:08:31;19.60;99.90
16301;DHT22;8258;51.020;4.248;2023-06-22T13:10:59;19.50;99.90
16301;DHT22;8258;51.020;4.248;2023-06-22T13:13:26;19.50;99.90
16301;DHT22;8258;51.020;4.248;2023-06-22T13:15:53;19.40;99.90
16301;DHT22;8258;51.020;4.248;2023-06-22T13:18:20;19.30;99.90
16301;DHT22;8258;51.020;4.248;2023-06-22T13:20:47;19.40;99.90
16301;DHT22;8258;51.020;4.248;2023-06-22T13:23:14;19.40;99.90
16301;DHT22;8258;51.020;4.248;2023-06-22T13:25:41;19.30;99.90
16301;DHT22;8258;51.020;4.248;2023-06-22T13:28:09;19.30;99.90
16301;DHT22;8258;51.020;4.248;2023-06-22T13:30:39;19.30;99.90
16301;DHT22;8258;51.020;4.248;2023-06-22T13:33:06;19.20;99.90
16301;DHT22;8258;51.020;4.248;2023-06-22T13:35:33;19.20;99.90
16301;DHT22;8258;51.020;4.248;2023-06-22T13:38:00;19.00;99.90
16301;DHT22;8258;51.020;4.248;2023-06-22T13:40:27;19.00;99.90
16301;DHT22;8258;51.020;4.248;2023-06-22T13:42:55;18.90;99.90
16301;DHT22;8258;51.020;4.248;2023-06-22T13:45:23;18.80;99.90
16301;DHT22;8258;51.020;4.248;2023-06-22T13:47:50;18.80;99.90
16301;DHT22;8258;51.020;4.248;2023-06-22T13:50:17;18.80;99.90
16301;DHT22;8258;51.020;4.248;2023-06-22T13:52:44;18.80;99.90
16301;DHT22;8258;51.020;4.248;2023-06-22T13:55:11;18.90;99.90
16301;DHT22;8258;51.020;4.248;2023-06-22T13:57:40;18.90;99.90
16301;DHT22;8258;51.020;4.248;2023-06-22T14:00:08;19.00;99.90
16301;DHT22;8258;51.020;4.248;2023-06-22T14:02:37;18.90;99.90
16301;DHT22;8258;51.020;4.248;2023-06-22T14:05:04;19.00;99.90
16301;DHT22;8258;51.020;4.248;2023-06-22T14:07:31;18.90;99.90
16301;DHT22;8258;51.020;4.248;2023-06-22T14:09:59;18.90;99.90
16301;DHT22;8258;51.020;4.248;2023-06-22T14:12:26;19.00;99.90
16301;DHT22;8258;51.020;4.248;2023-06-22T14:14:53;19.00;99.90
16301;DHT22;8258;51.020;4.248;2023-06-22T14:17:20;19.00;99.90
16301;DHT22;8258;51.020;4.248;2023-06-22T14:19:52;19.00;99.90
16301;DHT22;8258;51.020;4.248;2023-06-22T14:22:19;19.10;99.90
16301;DHT22;8258;51.020;4.248;2023-06-22T14:24:47;19.20;99.90
16301;DHT22;8258;51.020;4.248;2023-06-22T14:27:14;19.30;99.90
16301;DHT22;8258;51.020;4.248;2023-06-22T14:29:41;19.30;99.90
16301;DHT22;8258;51.020;4.248;2023-06-22T14:32:09;19.30;99.90
16301;DHT22;8258;51.020;4.248;2023-06-22T14:34:36;19.30;99.90
16301;DHT22;8258;51.020;4.248;2023-06-22T14:37:06;19.30;99.90
16301;DHT22;8258;51.020;4.248;2023-06-22T14:39:35;19.30;99.90
16301;DHT22;8258;51.020;4.248;2023-06-22T14:42:02;19.30;99.90
16301;DHT22;8258;51.020;4.248;2023-06-22T14:44:29;19.30;99.90
16301;DHT22;8258;51.020;4.248;2023-06-22T14:46:56;19.30;99.90
16301;DHT22;8258;51.020;4.248;2023-06-22T14:49:23;19.40;99.90
16301;DHT22;8258;51.020;4.248;2023-06-22T14:51:51;19.40;99.90
16301;DHT22;8258;51.020;4.248;2023-06-22T14:54:19;19.50;99.90
16301;DHT22;8258;51.020;4.248;2023-06-22T14:56:46;19.60;99.90
16301;DHT22;8258;51.020;4.248;2023-06-22T14:59:13;19.70;99.90
16301;DHT22;8258;51.020;4.248;2023-06-22T15:01:40;19.70;99.90
16301;DHT22;8258;51.020;4.248;2023-06-22T15:04:07;19.70;99.90
16301;DHT22;8258;51.020;4.248;2023-06-22T15:06:34;19.70;99.90
16301;DHT22;8258;51.020;4.248;2023-06-22T15:09:01;19.70;99.90
16301;DHT22;8258;51.020;4.248;2023-06-22T15:11:29;19.70;99.90
16301;DHT22;8258;51.020;4.248;2023-06-22T15:13:58;19.70;99.90
16301;DHT22;8258;51.020;4.248;2023-06-22T15:16:25;19.70;99.90
16301;DHT22;8258;51.020;4.248;2023-06-22T15:18:54;19.80;99.90
16301;DHT22;8258;51.020;4.248;2023-06-22T15:21:21;19.90;99.90
16301;DHT22;8258;51.020;4.248;2023-06-22T15:23:48;19.90;99.90
16301;DHT22;8258;51.020;4.248;2023-06-22T15:26:15;20.00;99.90
16301;DHT22;8258;51.020;4.248;2023-06-22T15:28:44;20.00;99.90
16301;DHT22;8258;51.020;4.248;2023-06-22T15:31:11;20.00;99.90
16301;DHT22;8258;51.020;4.248;2023-06-22T15:33:38;20.00;99.90
16301;DHT22;8258;51.020;4.248;2023-06-22T15:36:05;20.10;99.90
16301;DHT22;8258;51.020;4.248;2023-06-22T15:38:32;20.10;99.90
16301;DHT22;8258;51.020;4.248;2023-06-22T15:40:59;20.10;99.90
16301;DHT22;8258;51.020;4.248;2023-06-22T15:43:26;20.20;99.90
16301;DHT22;8258;51.020;4.248;2023-06-22T15:45:55;20.20;99.90
16301;DHT22;8258;51.020;4.248;2023-06-22T15:48:22;20.10;99.90